ADDS METAR Data INFO
IDs: Format: Raw Decoded Include TAF

Data at: 0346 UTC 18 Oct 2017

KAXS 180335Z AUTO 14009KT 10SM CLR 16/07 A3011 RMK AO2 T01580065
KAXS 180315Z AUTO 14009KT 10SM CLR 16/07 A3011 RMK AO2 T01610065
KAXS 180255Z AUTO 14009KT 10SM CLR 16/07 A3011 RMK AO2 T01630065
KAXS 180235Z AUTO 14009KT 10SM CLR 17/06 A3011 RMK AO2 T01660064
KAXS 180215Z AUTO 14010KT 10SM CLR 17/06 A3010 RMK AO2 T01700060
KAXS 180155Z AUTO 14010KT 10SM CLR 17/06 A3010 RMK AO2 T01670059
KAXS 180135Z AUTO 14009KT 10SM CLR 17/06 A3010 RMK AO2 T01670058
KAXS 180115Z AUTO 14009KT 10SM CLR 18/05 A3010 RMK AO2 T01800054
KAXS 180055Z AUTO 14009KT 10SM CLR 19/05 A3010 RMK AO2 T01860053
KAXS 180035Z AUTO 14008KT 10SM CLR 19/06 A3009 RMK AO2 T01860056
KAXS 180015Z AUTO 15008KT 10SM CLR 19/06 A3009 RMK AO2 T01910057
KAXS 172355Z AUTO 15009KT 10SM CLR 21/05 A3009 RMK AO2 T02100052 10257 20210
KAXS 172335Z AUTO 15008KT 10SM CLR 23/04 A3009 RMK AO2 T02300043
KAXS 172315Z AUTO 16010KT 10SM CLR 24/04 A3009 RMK AO2 T02410035
KAXS 172255Z AUTO 17011G18KT 10SM CLR 25/03 A3010 RMK AO2 T02480029
KAXS 172235Z AUTO 16013G16KT 10SM CLR 25/04 A3010 RMK AO2 T02520036
KAXS 172215Z AUTO 19008KT 10SM CLR 26/03 A3011 RMK AO2 T02550034
KAXS 172155Z AUTO 16010G15KT 10SM CLR 26/03 A3011 RMK AO2 T02560030
KAXS 172135Z AUTO 18008G16KT 10SM CLR 26/03 A3011 RMK AO2 T02560031
KAXS 172115Z AUTO 17011G17KT 10SM CLR 26/03 A3012 RMK AO2 T02560029
KAXS 172055Z AUTO 17011KT 10SM CLR 26/03 A3013 RMK AO2 T02560031
KAXS 172035Z AUTO 18011G15KT 10SM CLR 25/03 A3013 RMK AO2 T02530031
KAXS 172015Z AUTO 18012G19KT 10SM CLR 25/03 A3014 RMK AO2 T02500029
KAXS 171955Z AUTO 18015G19KT 10SM CLR 25/03 A3015 RMK AO2 T02500030
KAXS 171935Z AUTO 18010KT 10SM CLR 24/03 A3017 RMK AO2 T02430025
KAXS 171915Z AUTO 16010KT 10SM CLR 24/03 A3018 RMK AO2 T02420032
KAXS 171855Z AUTO 16010G18KT 10SM CLR 24/03 A3019 RMK AO2 T02370034
KAXS 171835Z AUTO 17010KT 10SM CLR 23/03 A3021 RMK AO2 T02330034
KAXS 171815Z AUTO 18010KT 10SM CLR 23/04 A3021 RMK AO2 T02290037
KAXS 171755Z AUTO 17009G15KT 10SM CLR 22/03 A3023 RMK AO2 T02220033 10222 20063
KAXS 171735Z AUTO 20012KT 10SM CLR 22/03 A3024 RMK AO2 T02160032
KAXS 171715Z AUTO 20011KT 10SM CLR 21/04 A3025 RMK AO2 T02130036
KAXS 171655Z AUTO 19012KT 10SM CLR 21/03 A3025 RMK AO2 T02090030
KAXS 171635Z AUTO 20012KT 10SM CLR 21/03 A3026 RMK AO2 T02070032
KAXS 171615Z AUTO 17010KT 10SM CLR 19/05 A3027 RMK AO2 T01930045
KAXS 171555Z AUTO 19009KT 10SM CLR 18/04 A3027 RMK AO2 T01830044
KAXS 171535Z AUTO 18008KT 10SM CLR 17/05 A3028 RMK AO2 T01700046
KAXS 171515Z AUTO 19007KT 10SM CLR 15/05 A3028 RMK AO2 T01530052
KAXS 171455Z AUTO 15007KT 10SM CLR 14/06 A3028 RMK AO2 T01350064
KAXS 171435Z AUTO 14006KT 10SM CLR 12/06 A3028 RMK AO2 T01210061
KAXS 171415Z AUTO 13005KT 10SM CLR 10/06 A3027 RMK AO2 T01000064
KAXS 171355Z AUTO 12004KT 10SM CLR 09/06 A3027 RMK AO2 T00890057
KAXS 171335Z AUTO 12005KT 10SM CLR 08/05 A3027 RMK AO2 T00810050
KAXS 171315Z AUTO 11007KT 10SM CLR 08/05 A3027 RMK AO2 T00760045
KAXS 171255Z AUTO 11005KT 10SM CLR 07/04 A3027 RMK AO2 T00710041
KAXS 171235Z AUTO 10005KT 10SM CLR 07/04 A3027 RMK AO2 T00660039
KAXS 171215Z AUTO 11006KT 10SM CLR 07/04 A3027 RMK AO2 T00650039
KAXS 171155Z AUTO 10005KT 10SM CLR 07/04 A3028 RMK AO2 T00650037 10106 20063
KAXS 171135Z AUTO 10004KT 10SM CLR 07/04 A3028 RMK AO2 T00730040
KAXS 171115Z AUTO 11005KT 10SM CLR 07/04 A3028 RMK AO2 T00720038
KAXS 171055Z AUTO 12003KT 10SM CLR 07/04 A3027 RMK AO2 T00740035
KAXS 171035Z AUTO 00000KT 10SM CLR 09/04 A3027 RMK AO2 T00850040
KAXS 171015Z AUTO 00000KT 10SM CLR 08/04 A3026 RMK AO2 T00820037
KAXS 170955Z AUTO 00000KT 10SM CLR 08/04 A3027 RMK AO2 T00800041
KAXS 170935Z AUTO 00000KT 10SM CLR 08/04 A3026 RMK AO2 T00750040
KAXS 170915Z AUTO 00000KT 10SM CLR 09/04 A3027 RMK AO2 T00880041
KAXS 170855Z AUTO 00000KT 10SM CLR 09/04 A3027 RMK AO2 T00910041
KAXS 170835Z AUTO 23004KT 10SM CLR 10/04 A3027 RMK AO2 T00960042
KAXS 170815Z AUTO 16004KT 10SM CLR 09/04 A3027 RMK AO2 T00870040
KAXS 170755Z AUTO 15004KT 10SM CLR 10/04 A3027 RMK AO2 T01010040
KAXS 170735Z AUTO 15004KT 10SM CLR 11/04 A3027 RMK AO2 T01050041
KAXS 170715Z AUTO 15005KT 10SM CLR 10/04 A3028 RMK AO2 T00990042
KAXS 170655Z AUTO 15005KT 10SM CLR 09/04 A3028 RMK AO2 T00920042
KAXS 170635Z AUTO 13005KT 10SM CLR 10/05 A3028 RMK AO2 T00980045
KAXS 170615Z AUTO 12005KT 10SM CLR 10/05 A3028 RMK AO2 T00970045
KAXS 170555Z AUTO 11006KT 10SM CLR 10/05 A3029 RMK AO2 T01000045 10170 20099 402180043
KAXS 170535Z AUTO 12006KT 10SM CLR 10/05 A3030 RMK AO2 T01000045
KAXS 170515Z AUTO 12006KT 10SM CLR 11/05 A3030 RMK AO2 T01060045
KAXS 170455Z AUTO 13006KT 10SM CLR 11/05 A3030 RMK AO2 T01110046
KAXS 170435Z AUTO 14006KT 10SM CLR 11/05 A3030 RMK AO2 T01090046
KAXS 170415Z AUTO 14006KT 10SM CLR 11/05 A3031 RMK AO2 T01080046
KAXS 170355Z AUTO 14006KT 10SM CLR 11/05 A3031 RMK AO2 T01100046
KAXS 170335Z AUTO 14006KT 10SM CLR 11/05 A3030 RMK AO2 T01090047
KAXS 170315Z AUTO 14006KT 10SM CLR 11/05 A3031 RMK AO2 T01100045
KAXS 170255Z AUTO 15006KT 10SM CLR 11/04 A3030 RMK AO2 T01140043
KAXS 170235Z AUTO 14006KT 10SM CLR 13/04 A3030 RMK AO2 T01250041
KAXS 170215Z AUTO 14005KT 10SM CLR 12/04 A3030 RMK AO2 T01230043
KAXS 170155Z AUTO 14006KT 10SM CLR 13/04 A3030 RMK AO2 T01250043
KAXS 170135Z AUTO 15006KT 10SM CLR 13/05 A3030 RMK AO2 T01250046
KAXS 170115Z AUTO 15007KT 10SM CLR 13/05 A3030 RMK AO2 T01300046
KAXS 170055Z AUTO 16006KT 10SM CLR 14/05 A3030 RMK AO2 T01370047
KAXS 170035Z AUTO 16005KT 10SM CLR 15/05 A3030 RMK AO2 T01500046
KAXS 170015Z AUTO 16005KT 10SM CLR 16/04 A3029 RMK AO2 T01560044
KAXS 162355Z AUTO 16005KT 10SM CLR 17/05 A3029 RMK AO2 T01710048 10218 20171
KAXS 162335Z AUTO 18005KT 10SM CLR 19/04 A3029 RMK AO2 T01880036
KAXS 162315Z AUTO 16004KT 10SM CLR 20/04 A3030 RMK AO2 T02000035
KAXS 162255Z AUTO 18005KT 10SM CLR 21/01 A3030 RMK AO2 T02100012
KAXS 162235Z AUTO 17005KT 10SM CLR 21/01 A3031 RMK AO2 T02130012
KAXS 162215Z AUTO 18006KT 10SM CLR 22/01 A3031 RMK AO2 T02150010
KAXS 162155Z AUTO 16005KT 10SM CLR 22/01 A3032 RMK AO2 T02150008
KAXS 162135Z AUTO 16003KT 10SM CLR 22/01 A3032 RMK AO2 T02170006
KAXS 162115Z AUTO 20006KT 10SM CLR 21/01 A3033 RMK AO2 T02130012
KAXS 162055Z AUTO 14003KT 10SM CLR 22/01 A3033 RMK AO2 T02150011
KAXS 162035Z AUTO 00000KT 10SM CLR 21/01 A3034 RMK AO2 T02130012
KAXS 162015Z AUTO 20006KT 160V220 10SM CLR 21/01 A3035 RMK AO2 T02140013
KAXS 161955Z AUTO 00000KT 10SM CLR 21/01 A3036 RMK AO2 T02090010
KAXS 161935Z AUTO 00000KT 10SM CLR 21/01 A3037 RMK AO2 T02070012
KAXS 161915Z AUTO 14003KT 10SM CLR 20/00 A3039 RMK AO2 T02020001
KAXS 161855Z AUTO 21005KT 10SM CLR 20/01 A3041 RMK AO2 T02030011
KAXS 161835Z AUTO 14006KT 10SM CLR 20/01 A3043 RMK AO2 T01990011
KAXS 161815Z AUTO 15004KT 10SM CLR 20/02 A3044 RMK AO2 T01960015
KAXS 161755Z AUTO 16003KT 10SM CLR 19/02 A3045 RMK AO2 T01890018 10190 20043
KAXS 161735Z AUTO 17003KT 10SM CLR 18/02 A3045 RMK AO2 T01800019
KAXS 161715Z AUTO 00000KT 10SM CLR 18/02 A3047 RMK AO2 T01790015
KAXS 161655Z AUTO 00000KT 10SM CLR 17/03 A3047 RMK AO2 T01740028
KAXS 161635Z AUTO 20003KT 10SM CLR 17/04 A3048 RMK AO2 T01700035
KAXS 161615Z AUTO 18003KT 10SM CLR 16/04 A3049 RMK AO2 T01580041
KAXS 161555Z AUTO 00000KT 10SM CLR 15/05 A3049 RMK AO2 T01500053